.
WxDataArchive / Data Records for 2012-07-09
2012-07-08 July 2012 2012-07-10

Data Records for Monday, 09 July 2012

Time	Temp	Chill	HIndex	Humid	Dewpt	 Wind 	HiWind	WindDir	Rain 	Barom 
-----	----	-----	------	-----	-----	------	------	-------	-----	----- 
00:00	71.6	71.6	71.6	57	55.5	0	3	112	0.00	29.997 
00:05	71.6	71.6	71.6	57	55.5	0	0	---	0.00	29.997 
00:10	71.5	71.5	71.5	58	55.9	0	0	---	0.00	29.997 
00:15	71.5	71.5	71.5	58	55.9	0	0	---	0.00	30.004 
00:20	71.5	71.5	71.5	59	56.4	0	3	112	0.00	30.004 
00:25	71.6	71.6	71.6	60	57.0	0	2	112	0.00	30.004 
00:30	71.8	71.8	71.8	60	57.2	0	0	---	0.00	30.009 
00:35	72.0	72.0	72.0	60	57.3	0	1	112	0.00	30.009 
00:40	72.1	72.1	72.1	60	57.4	0	3	112	0.00	30.009 
00:45	72.1	72.1	72.1	61	57.9	0	3	112	0.00	30.010 
00:50	72.3	72.3	72.3	61	58.1	1	4	112	0.00	30.010 
00:55	72.3	72.3	72.3	61	58.1	1	4	112	0.00	30.010 
01:00	72.3	72.3	72.3	62	58.5	1	4	112	0.00	30.012 
01:05	72.1	72.1	72.1	62	58.3	2	4	112	0.00	30.012 
01:10	72.0	72.0	72.0	63	58.7	1	4	112	0.00	30.012 
01:15	71.6	71.6	71.6	63	58.3	1	4	112	0.00	30.009 
01:20	71.5	71.5	71.5	64	58.7	1	3	90	0.00	30.009 
01:25	71.1	71.1	71.1	65	58.7	1	2	90	0.00	30.009 
01:30	70.9	70.9	70.9	65	58.5	1	2	90	0.00	30.006 
01:35	70.8	70.8	70.8	66	58.9	0	2	90	0.00	30.006 
01:40	70.4	70.4	70.4	67	58.9	0	2	90	0.00	30.006 
01:45	70.4	70.4	70.4	68	59.3	0	2	90	0.00	30.005 
01:50	70.1	70.1	70.1	68	59.0	0	1	90	0.00	30.005 
01:55	70.1	70.1	70.1	69	59.4	0	1	90	0.00	30.005 
02:00	69.9	69.9	69.9	69	59.3	0	1	90	0.00	30.007 
02:05	69.8	69.8	69.8	69	59.2	0	0	---	0.00	30.007 
02:10	69.6	69.6	69.6	69	59.0	0	1	90	0.00	30.007 
02:15	69.4	69.4	69.4	70	59.2	0	1	90	0.00	30.004 
02:20	69.3	69.3	69.3	70	59.1	0	0	---	0.00	30.004 
02:25	68.9	68.9	68.9	71	59.1	0	0	---	0.00	30.004 
02:30	68.8	68.8	68.8	71	59.0	0	0	---	0.00	30.003 
02:35	68.4	68.4	68.4	72	59.0	0	0	---	0.00	30.003 
02:40	68.1	68.1	68.1	73	59.1	0	0	---	0.00	30.003 
02:45	67.9	67.9	67.9	73	58.9	0	0	---	0.00	30.000 
02:50	67.6	67.6	67.6	74	59.0	0	0	---	0.00	30.000 
02:55	67.4	67.4	67.4	75	59.2	0	0	---	0.00	30.000 
03:00	67.3	67.3	67.3	76	59.5	0	0	---	0.00	30.006 
03:05	67.1	67.1	67.1	77	59.6	0	0	---	0.00	30.006 
03:10	67.1	67.1	67.1	77	59.6	0	0	---	0.00	30.006 
03:15	66.9	66.9	66.9	78	59.8	0	0	---	0.00	30.005 
03:20	66.8	66.8	66.8	79	60.1	0	0	---	0.00	30.005 
03:25	66.4	66.4	66.4	79	59.7	0	0	---	0.00	30.005 
03:30	66.3	66.3	66.3	80	59.9	0	0	---	0.00	30.006 
03:35	66.1	66.1	66.1	80	59.7	0	0	---	0.00	30.006 
03:40	66.0	66.0	66.0	81	60.0	0	0	---	0.00	30.006 
03:45	65.8	65.8	65.8	81	59.8	0	0	---	0.00	30.006 
03:50	65.6	65.6	65.6	81	59.6	0	0	---	0.00	30.006 
03:55	65.5	65.5	65.5	82	59.9	0	0	---	0.00	30.006 
04:00	65.3	65.3	65.3	82	59.7	0	0	---	0.00	30.005 
04:05	65.2	65.2	65.2	82	59.6	0	0	---	0.00	30.005 
04:10	65.0	65.0	65.0	83	59.7	0	0	---	0.00	30.005 
04:15	64.8	64.8	64.8	83	59.5	0	0	---	0.00	30.009 
04:20	64.7	64.7	64.7	83	59.4	0	0	---	0.00	30.009 
04:25	64.5	64.5	64.5	84	59.6	0	0	---	0.00	30.009 
04:30	64.3	64.3	64.3	84	59.4	0	0	---	0.00	30.011 
04:35	64.2	64.2	64.2	84	59.3	0	0	---	0.00	30.011 
04:40	64.2	64.2	64.2	84	59.3	0	0	---	0.00	30.011 
04:45	64.0	64.0	64.0	84	59.1	0	0	---	0.00	30.011 
04:50	63.9	63.9	63.9	85	59.3	0	0	---	0.00	30.011 
04:55	63.9	63.9	63.9	85	59.3	0	0	---	0.00	30.011 
05:00	63.7	63.7	63.7	85	59.1	0	0	---	0.00	30.013 
05:05	63.5	63.5	63.5	86	59.2	0	0	---	0.00	30.013 
05:10	63.4	63.4	63.4	86	59.1	0	0	---	0.00	30.013 
05:15	63.4	63.4	63.4	86	59.1	0	0	---	0.00	30.017 
05:20	63.2	63.2	63.2	86	58.9	0	0	---	0.00	30.017 
05:25	63.2	63.2	63.2	87	59.3	0	0	---	0.00	30.017 
05:30	63.1	63.1	63.1	87	59.2	0	0	---	0.00	30.017 
05:35	62.9	62.9	62.9	87	59.0	0	0	---	0.00	30.017 
05:40	62.7	62.7	62.7	87	58.8	0	0	---	0.00	30.017 
05:45	62.7	62.7	62.7	88	59.1	0	0	---	0.00	30.019 
05:50	62.6	62.6	62.6	88	59.0	0	0	---	0.00	30.019 
05:55	62.6	62.6	62.6	88	59.0	0	0	---	0.00	30.019 
06:00	62.6	62.6	62.6	88	59.0	0	0	---	0.00	30.018 
06:05	62.4	62.4	62.4	88	58.8	0	0	---	0.00	30.018 
06:10	62.4	62.4	62.4	89	59.1	0	0	---	0.00	30.018 
06:15	62.4	62.4	62.4	89	59.1	0	0	---	0.00	30.024 
06:20	62.4	62.4	62.4	89	59.1	0	0	---	0.00	30.024 
06:25	62.3	62.3	62.3	89	59.0	0	0	---	0.00	30.024 
06:30	62.3	62.3	62.3	90	59.3	0	0	---	0.00	30.026 
06:35	62.4	62.4	62.4	90	59.4	0	0	---	0.00	30.026 
06:40	62.6	62.6	62.6	90	59.6	0	0	---	0.00	30.026 
06:45	62.6	62.6	62.6	90	59.6	0	0	---	0.00	30.029 
06:50	62.6	62.6	62.6	90	59.6	0	0	---	0.00	30.029 
06:55	62.7	62.7	62.7	90	59.7	0	0	---	0.00	30.029 
07:00	62.7	62.7	62.7	91	60.0	0	0	---	0.00	30.029 
07:05	62.9	62.9	62.9	91	60.2	0	0	---	0.00	30.029 
07:10	63.1	63.1	63.1	91	60.4	0	0	---	0.00	30.029 
07:15	63.5	63.5	63.5	91	60.8	0	0	---	0.00	30.027 
07:20	64.0	64.0	64.0	91	61.3	0	0	---	0.00	30.027 
07:25	64.5	64.5	64.5	91	61.8	0	1	90	0.00	30.027 
07:30	65.2	65.2	65.2	90	62.2	0	1	90	0.00	30.026 
07:35	66.1	66.1	66.1	88	62.4	0	0	---	0.00	30.026 
07:40	67.1	67.1	67.1	84	62.1	0	1	90	0.00	30.026 
07:45	68.1	68.1	68.1	82	62.4	0	1	90	0.00	30.024 
07:50	69.1	69.1	69.1	77	61.6	1	3	90	0.00	30.024 
07:55	70.1	70.1	70.1	74	61.4	0	2	90	0.00	30.024 
08:00	70.9	70.9	70.9	71	61.0	1	2	112	0.00	30.023 
08:05	71.3	71.3	71.3	70	61.0	1	4	112	0.00	30.023 
08:10	71.8	71.8	71.8	70	61.5	1	3	112	0.00	30.023 
08:15	72.5	72.5	72.5	69	61.7	0	1	112	0.00	30.035 
08:20	73.3	73.3	73.3	66	61.2	1	3	112	0.00	30.035 
08:25	73.7	73.7	73.7	65	61.2	1	3	112	0.00	30.035 
08:30	74.0	74.0	74.0	65	61.5	1	2	112	0.00	30.029 
08:35	74.6	74.6	74.6	62	60.7	1	2	112	0.00	30.029 
08:40	74.9	74.9	74.9	62	61.0	1	3	112	0.00	30.029 
08:45	75.4	75.4	77.6	59	60.1	1	3	112	0.00	30.027 
08:50	76.0	76.0	78.0	58	60.1	1	2	112	0.00	30.027 
08:55	76.7	76.7	78.5	58	60.8	0	2	112	0.00	30.027 
09:00	76.7	76.7	78.5	58	60.8	2	4	112	0.00	30.021 
09:05	76.1	76.1	78.1	58	60.2	2	4	90	0.00	30.021 
09:10	76.3	76.3	78.2	59	60.9	1	3	90	0.00	30.021 
09:15	76.7	76.7	78.5	58	60.8	1	3	112	0.00	30.024 
09:20	77.0	77.0	78.8	58	61.1	1	3	90	0.00	30.024 
09:25	77.0	77.0	78.7	56	60.1	1	3	90	0.00	30.024 
09:30	77.4	77.4	79.0	55	59.9	1	3	90	0.00	30.026 
09:35	77.7	77.7	79.3	57	61.2	2	4	90	0.00	30.026 
09:40	77.6	77.6	79.2	56	60.6	2	6	90	0.00	30.026 
09:45	77.9	77.9	79.3	54	59.9	1	3	90	0.00	30.033 
09:50	77.9	77.9	79.3	54	59.9	2	5	68	0.00	30.033 
09:55	78.5	78.5	79.8	54	60.4	1	3	68	0.00	30.033 
10:00	78.8	78.8	80.0	53	60.2	1	3	68	0.00	30.033 
10:05	79.6	79.6	80.7	53	60.9	1	3	68	0.00	30.033 
10:10	80.1	80.1	81.0	51	60.3	1	3	68	0.00	30.033 
10:15	80.7	80.7	81.2	48	59.2	1	3	68	0.00	30.030 
10:20	80.7	80.7	81.3	49	59.7	2	5	90	0.00	30.030 
10:25	80.7	80.7	81.2	48	59.2	1	4	68	0.00	30.030 
10:30	81.1	81.1	81.6	48	59.5	0	2	68	0.00	30.031 
10:35	81.8	81.8	82.1	47	59.6	0	3	68	0.00	30.031 
10:40	82.4	82.4	82.6	46	59.5	1	3	68	0.00	30.031 
10:45	82.8	82.8	82.9	45	59.3	2	6	68	0.00	30.024 
10:50	82.6	82.6	82.8	46	59.7	1	4	90	0.00	30.024 
10:55	83.2	83.2	83.4	46	60.2	1	2	90	0.00	30.024 
11:00	83.4	83.4	83.5	45	59.8	1	4	90	0.00	30.023 
11:05	82.8	82.8	82.6	43	58.0	2	4	270	0.00	30.023 
11:10	83.2	83.2	83.3	45	59.6	1	5	270	0.00	30.023 
11:15	83.4	83.4	83.2	43	58.5	1	4	90	0.00	30.024 
11:20	83.4	83.4	83.2	43	58.5	0	3	90	0.00	30.024 
11:25	84.0	84.0	83.3	40	57.0	1	3	90	0.00	30.024 
11:30	84.7	84.7	83.5	37	55.5	1	4	225	0.00	30.022 
11:35	84.9	84.9	84.0	39	57.1	1	4	90	0.00	30.022 
11:40	84.9	84.9	84.0	39	57.1	1	4	90	0.00	30.022 
11:45	84.9	84.9	84.0	39	57.1	1	4	90	0.00	30.021 
11:50	84.3	84.3	83.3	38	55.9	2	5	112	0.00	30.021 
11:55	84.5	84.5	83.3	37	55.3	1	4	112	0.00	30.021 
12:00	84.9	84.9	83.6	36	54.9	0	2	112	0.00	30.021 
12:05	85.7	85.7	84.5	37	56.4	0	3	112	0.00	30.021 
12:10	85.5	85.5	84.3	37	56.2	2	6	90	0.00	30.021 
12:15	85.7	85.7	84.5	37	56.4	0	1	90	0.00	30.018 
12:20	86.1	86.1	85.0	37	56.7	1	4	90	0.00	30.018 
12:25	85.9	85.9	84.4	35	55.0	2	4	112	0.00	30.018 
12:30	85.7	85.7	84.2	35	54.9	2	7	112	0.00	30.019 
12:35	85.9	85.9	84.1	33	53.4	1	5	90	0.00	30.019 
12:40	85.9	85.9	84.2	34	54.2	2	6	90	0.00	30.019 
12:45	86.1	86.1	84.4	34	54.4	2	4	90	0.00	30.022 
12:50	85.9	85.9	84.4	35	55.0	2	5	90	0.00	30.022 
12:55	86.1	86.1	84.6	35	55.2	2	5	90	0.00	30.022 
13:00	86.3	86.3	84.6	34	54.6	1	4	90	0.00	30.021 
13:05	86.5	86.5	84.8	34	54.8	1	6	90	0.00	30.021 
13:10	86.7	86.7	85.1	34	54.9	1	4	112	0.00	30.021 
13:15	87.4	87.4	85.8	34	55.5	1	2	270	0.00	30.022 
13:20	88.0	88.0	86.5	34	56.1	2	4	90	0.00	30.022 
13:25	87.4	87.4	85.8	34	55.5	3	7	90	0.00	30.022 
13:30	87.2	87.2	85.4	33	54.6	2	5	112	0.00	30.015 
13:35	87.4	87.4	85.8	34	55.5	0	3	112	0.00	30.015 
13:40	88.0	88.0	86.3	33	55.2	1	3	112	0.00	30.015 
13:45	88.6	88.6	86.6	31	54.1	1	4	112	0.00	30.007 
13:50	88.6	88.6	86.7	32	54.9	1	5	68	0.00	30.007 
13:55	88.2	88.2	86.1	31	53.7	2	6	90	0.00	30.007 
14:00	87.4	87.4	85.6	33	54.7	1	4	90	0.00	30.005 
14:05	87.0	87.0	85.4	34	55.2	0	2	90	0.00	30.005 
14:10	87.0	87.0	85.2	33	54.4	1	4	90	0.00	30.005 
14:15	87.4	87.4	85.4	32	53.9	1	4	112	0.00	29.999 
14:20	88.0	88.0	86.3	33	55.2	2	5	68	0.00	29.999 
14:25	88.6	88.6	86.6	31	54.1	1	3	68	0.00	29.999 
14:30	89.3	89.3	87.3	31	54.7	1	4	90	0.00	29.995 
14:35	89.7	89.7	87.6	30	54.1	1	4	90	0.00	29.995 
14:40	89.5	89.5	87.6	31	54.8	1	4	90	0.00	29.995 
14:45	88.8	88.8	86.8	31	54.2	1	3	112	0.00	29.992 
14:50	87.8	87.8	85.9	32	54.2	1	3	112	0.00	29.992 
14:55	87.4	87.4	85.6	33	54.7	0	1	112	0.00	29.992 
15:00	87.4	87.4	85.6	33	54.7	0	2	112	0.00	29.992 
15:05	87.2	87.2	85.4	33	54.6	1	4	112	0.00	29.992 
15:10	87.2	87.2	85.4	33	54.6	2	4	112	0.00	29.992 
15:15	87.6	87.6	85.8	33	54.9	2	4	112	0.00	29.988 
15:20	88.0	88.0	86.3	33	55.2	1	4	112	0.00	29.988 
15:25	88.4	88.4	86.3	31	53.9	2	3	292	0.00	29.988 
15:30	88.4	88.4	86.3	31	53.9	1	3	292	0.00	29.983 
15:35	89.0	89.0	87.0	31	54.4	1	5	112	0.00	29.983 
15:40	89.7	89.7	87.4	29	53.2	1	3	112	0.00	29.983 
15:45	89.9	89.9	87.8	30	54.3	2	4	112	0.00	29.978 
15:50	89.9	89.9	87.8	30	54.3	1	3	112	0.00	29.978 
15:55	88.8	88.8	86.6	30	53.3	1	4	270	0.00	29.978 
16:00	88.2	88.2	86.3	32	54.6	1	3	270	0.00	29.979 
16:05	87.4	87.4	85.4	32	53.9	0	1	270	0.00	29.979 
16:10	86.5	86.5	84.7	33	53.9	0	2	292	0.00	29.979 
16:15	86.3	86.3	84.8	35	55.4	1	3	292	0.00	29.978 
16:20	85.9	85.9	84.4	35	55.0	0	1	292	0.00	29.978 
16:25	85.5	85.5	84.0	35	54.7	0	1	292	0.00	29.978 
16:30	85.3	85.3	83.8	35	54.5	0	1	292	0.00	29.973 
16:35	85.3	85.3	83.8	35	54.5	0	2	292	0.00	29.973 
16:40	85.3	85.3	83.8	35	54.5	0	1	292	0.00	29.973 
16:45	85.3	85.3	83.8	35	54.5	0	0	---	0.00	29.976 
16:50	85.3	85.3	83.8	35	54.5	0	2	292	0.00	29.976 
16:55	85.9	85.9	84.2	34	54.2	0	1	292	0.00	29.976 
17:00	87.2	87.2	85.2	32	53.7	1	4	68	0.00	29.966 
17:05	88.0	88.0	86.1	32	54.4	2	4	68	0.00	29.966 
17:10	88.6	88.6	86.6	31	54.1	1	3	68	0.00	29.966 
17:15	88.4	88.4	86.5	32	54.7	1	4	68	0.00	29.963 
17:20	88.2	88.2	86.1	31	53.7	0	1	68	0.00	29.963 
17:25	87.8	87.8	85.9	32	54.2	0	3	68	0.00	29.963 
17:30	87.6	87.6	85.8	33	54.9	0	1	68	0.00	29.960 
17:35	87.4	87.4	85.6	33	54.7	0	1	68	0.00	29.960 
17:40	87.6	87.6	85.7	32	54.1	0	2	68	0.00	29.960 
17:45	87.4	87.4	85.4	32	53.9	0	1	68	0.00	29.954 
17:50	87.2	87.2	85.4	33	54.6	1	2	68	0.00	29.954 
17:55	86.7	86.7	84.9	33	54.1	1	3	68	0.00	29.954 
18:00	86.3	86.3	84.6	34	54.6	0	2	68	0.00	29.956 
18:05	86.1	86.1	84.4	34	54.4	0	0	---	0.00	29.956 
18:10	86.1	86.1	84.6	35	55.2	0	1	68	0.00	29.956 
18:15	86.1	86.1	84.4	34	54.4	0	1	68	0.00	29.953 
18:20	86.3	86.3	84.8	35	55.4	0	1	68	0.00	29.953 
18:25	86.1	86.1	84.6	35	55.2	0	1	68	0.00	29.953 
18:30	86.1	86.1	84.6	35	55.2	0	0	---	0.00	29.950 
18:35	85.9	85.9	84.4	35	55.0	0	1	68	0.00	29.950 
18:40	85.9	85.9	84.6	36	55.8	0	1	68	0.00	29.950 
18:45	85.7	85.7	84.4	36	55.6	0	1	68	0.00	29.948 
18:50	85.5	85.5	84.2	36	55.5	0	1	68	0.00	29.948 
18:55	85.5	85.5	84.3	37	56.2	0	1	68	0.00	29.948 
19:00	84.7	84.7	83.7	38	56.2	1	3	315	0.00	29.949 
19:05	84.0	84.0	83.6	42	58.4	0	3	315	0.00	29.949 
19:10	82.8	82.8	83.0	46	59.9	1	3	315	0.00	29.949 
19:15	81.8	81.8	82.6	50	61.3	0	0	---	0.00	29.945 
19:20	81.1	81.1	81.8	50	60.7	0	1	315	0.00	29.945 
19:25	80.7	80.7	81.7	52	61.4	0	0	---	0.00	29.945 
19:30	80.7	80.7	81.7	52	61.4	0	0	---	0.00	29.944 
19:35	80.5	80.5	81.5	52	61.2	0	0	---	0.00	29.944 
19:40	80.7	80.7	81.7	52	61.4	0	1	315	0.00	29.944 
19:45	81.1	81.1	82.0	51	61.2	0	0	---	0.00	29.944 
19:50	81.6	81.6	82.1	48	60.0	0	1	315	0.00	29.944 
19:55	82.6	82.6	82.8	46	59.7	0	0	---	0.00	29.944 
20:00	83.4	83.4	83.5	45	59.8	0	0	---	0.00	29.943 
20:05	84.0	84.0	83.8	43	59.1	0	1	315	0.00	29.943 
20:10	84.3	84.3	84.3	44	60.0	0	1	315	0.00	29.943 
20:15	84.5	84.5	84.0	41	58.2	0	0	---	0.00	29.940 
20:20	84.7	84.7	84.0	40	57.7	0	0	---	0.00	29.940 
20:25	84.7	84.7	84.4	42	59.0	0	0	---	0.00	29.940 
20:30	84.5	84.5	84.1	42	58.9	0	0	---	0.00	29.940 
20:35	84.1	84.1	83.7	42	58.5	0	0	---	0.00	29.940 
20:40	84.0	84.0	83.8	43	59.1	0	0	---	0.00	29.940 
20:45	83.6	83.6	83.4	43	58.7	0	0	---	0.00	29.942 
20:50	83.4	83.4	83.2	43	58.5	0	0	---	0.00	29.942 
20:55	82.8	82.8	82.7	44	58.6	0	0	---	0.00	29.942 
21:00	82.4	82.4	82.5	45	58.9	0	0	---	0.00	29.943 
21:05	82.0	82.0	82.1	45	58.5	0	0	---	0.00	29.943 
21:10	81.8	81.8	82.0	46	59.0	0	0	---	0.00	29.943 
21:15	81.6	81.6	81.9	47	59.4	0	0	---	0.00	29.943 
21:20	81.2	81.2	81.5	46	58.4	0	0	---	0.00	29.943 
21:25	80.9	80.9	81.4	48	59.3	0	0	---	0.00	29.943 
21:30	80.5	80.5	81.2	49	59.6	0	1	315	0.00	29.948 
21:35	80.1	80.1	80.9	50	59.8	0	0	---	0.00	29.948 
21:40	79.9	79.9	80.8	51	60.1	0	1	315	0.00	29.948 
21:45	79.6	79.6	80.6	52	60.4	0	0	---	0.00	29.955 
21:50	79.4	79.4	80.5	52	60.2	0	0	---	0.00	29.955 
21:55	79.0	79.0	80.0	51	59.3	0	1	315	0.00	29.955 
22:00	78.8	78.8	79.8	50	58.6	0	1	315	0.00	29.958 
22:05	78.6	78.6	79.6	49	57.8	0	1	315	0.00	29.958 
22:10	78.6	78.6	79.6	49	57.8	0	2	315	0.00	29.958 
22:15	78.5	78.5	79.5	48	57.2	0	1	315	0.00	29.962 
22:20	78.3	78.3	79.3	48	57.0	0	1	315	0.00	29.962 
22:25	78.3	78.3	79.4	49	57.5	0	1	315	0.00	29.962 
22:30	78.1	78.1	79.3	49	57.4	0	1	315	0.00	29.969 
22:35	77.9	77.9	79.1	49	57.2	0	0	---	0.00	29.969 
22:40	77.6	77.6	79.0	50	57.5	0	0	---	0.00	29.969 
22:45	77.4	77.4	78.8	50	57.3	0	0	---	0.00	29.970 
22:50	77.0	77.0	78.6	51	57.5	0	0	---	0.00	29.970 
22:55	76.7	76.7	78.5	52	57.7	0	0	---	0.00	29.970 
23:00	76.3	76.3	78.2	52	57.4	0	0	---	0.00	29.973 
23:05	76.0	76.0	78.1	53	57.6	0	0	---	0.00	29.973 
23:10	75.6	75.6	77.9	54	57.8	0	0	---	0.00	29.973 
23:15	75.3	75.3	77.7	54	57.5	0	0	---	0.00	29.971 
23:20	74.9	74.9	74.9	55	57.6	0	0	---	0.00	29.971 
23:25	74.7	74.7	74.7	55	57.4	0	0	---	0.00	29.971 
23:30	74.7	74.7	74.7	55	57.4	0	1	315	0.00	29.972 
23:35	74.7	74.7	74.7	55	57.4	0	1	315	0.00	29.972 
23:40	74.7	74.7	74.7	56	57.9	0	1	315	0.00	29.972 
23:45	74.6	74.6	74.6	56	57.8	0	1	315	0.00	29.973 
23:50	74.6	74.6	74.6	56	57.8	0	1	315	0.00	29.973 
23:55	74.4	74.4	74.4	57	58.2	0	1	315	0.00	29.973 

CoCoRaHS
IN-AL-39
A2 Web Hosting
Creative Commons License
GoDaddy
search engine by freefind advanced

loaded 2018-11-20 14:26:44 • last modified 2010-11-18 10:43:29
Privacy PolicyDisclaimer
• wx.awcolley.com is powered by PmWiki v.2002016 •
• all content (unless otherwise noted) © 2018 A W Colley